createdAt,value
2024-01-07T00:00:54.300Z,23.75
2024-01-07T00:03:21.655Z,25.75
2024-01-07T02:36:01.430Z,36.35
2024-01-07T02:38:28.635Z,31.13
2024-01-07T02:40:55.758Z,26.02
2024-01-07T02:43:22.934Z,30.27
2024-01-07T02:45:50.095Z,26.23
2024-01-07T02:48:17.309Z,24.10
2024-01-07T02:50:44.946Z,26.52
2024-01-07T02:53:13.305Z,27.65
2024-01-07T02:55:40.505Z,24.55
2024-01-07T02:58:07.772Z,33.40
2024-01-07T03:00:35.210Z,23.30
2024-01-07T03:03:02.457Z,26.55
2024-01-07T03:05:33.869Z,22.85
2024-01-07T03:08:01.657Z,22.92
2024-01-07T03:10:28.771Z,24.13
2024-01-07T03:12:56.052Z,27.52
2024-01-07T03:15:23.417Z,24.50
2024-01-07T03:17:50.980Z,24.85
2024-01-07T05:23:14.287Z,21.90
2024-01-07T05:25:43.272Z,19.88
2024-01-07T05:28:10.702Z,22.25
2024-01-07T05:30:37.918Z,21.38
2024-01-07T05:33:05.361Z,20.17
2024-01-07T05:35:32.955Z,20.75
2024-01-07T05:38:00.166Z,16.50
2024-01-07T05:40:27.409Z,18.17
2024-01-07T05:42:54.601Z,22.85
2024-01-07T05:45:21.781Z,23.38
2024-01-07T05:47:48.978Z,21.63
2024-01-07T05:50:17.260Z,23.50
2024-01-07T05:52:45.670Z,25.58
2024-01-07T05:55:13.043Z,19.65
2024-01-07T05:57:40.882Z,18.77
2024-01-07T06:00:08.948Z,18.20
2024-01-07T06:02:36.549Z,22.42
2024-01-07T06:05:04.802Z,21.27
2024-01-07T06:07:32.064Z,20.15
2024-01-07T06:10:00.544Z,17.95
2024-01-07T06:12:27.780Z,21.90
2024-01-07T06:14:55.119Z,17.77
2024-01-07T06:17:22.258Z,17.65
2024-01-07T06:19:49.620Z,20.90
2024-01-07T06:22:16.922Z,17.08
2024-01-07T06:24:45.001Z,22.20
2024-01-07T06:27:12.207Z,20.38
2024-01-07T06:29:39.578Z,18.63
2024-01-07T06:32:06.796Z,17.88
2024-01-07T06:34:35.113Z,19.20
2024-01-07T06:37:02.350Z,18.58
2024-01-07T06:39:29.535Z,16.58
2024-01-07T06:41:56.715Z,18.10
2024-01-07T06:44:23.961Z,21.25
2024-01-07T06:46:51.118Z,15.18
2024-01-07T06:49:19.286Z,16.25
2024-01-07T06:51:46.724Z,15.05
2024-01-07T06:54:15.322Z,14.82
2024-01-07T06:56:43.039Z,14.65
2024-01-07T06:59:11.728Z,14.40
2024-01-07T07:01:40.022Z,11.50
2024-01-07T07:04:07.359Z,16.77
2024-01-07T07:06:34.633Z,29.55
2024-01-07T07:09:02.388Z,14.25
2024-01-07T07:11:29.498Z,13.18
2024-01-07T07:13:56.652Z,15.68
2024-01-07T07:16:24.097Z,16.38
2024-01-07T07:18:51.491Z,14.35
2024-01-07T07:21:18.693Z,13.63
2024-01-07T07:23:45.818Z,12.25
2024-01-07T07:26:13.022Z,13.02
2024-01-07T07:28:40.203Z,15.60
2024-01-07T07:31:07.517Z,11.80
2024-01-07T07:33:35.060Z,13.38
2024-01-07T07:36:02.283Z,9.88
2024-01-07T07:38:29.447Z,8.95
2024-01-07T07:40:56.896Z,10.50
2024-01-07T07:43:24.132Z,15.15
2024-01-07T07:45:52.305Z,9.25
2024-01-07T07:55:45.447Z,11.82
2024-01-07T07:58:12.941Z,12.15
2024-01-07T08:00:40.314Z,14.85
2024-01-07T08:03:07.564Z,10.18
2024-01-07T08:05:34.854Z,10.10
2024-01-07T08:08:02.121Z,11.43
2024-01-07T08:10:30.088Z,10.15
2024-01-07T08:12:57.389Z,10.80
2024-01-07T08:15:24.628Z,8.27
2024-01-07T08:17:52.973Z,8.73
2024-01-07T08:20:21.076Z,11.18
2024-01-07T08:22:48.332Z,8.38
2024-01-07T08:25:15.580Z,7.68
2024-01-07T08:27:43.734Z,11.45
2024-01-07T08:30:14.935Z,9.05
2024-01-07T08:32:47.549Z,8.23
2024-01-07T08:35:16.453Z,9.60
2024-01-07T08:37:46.369Z,9.95
2024-01-07T08:40:15.257Z,12.48
2024-01-07T08:42:42.903Z,10.85
2024-01-07T08:45:10.303Z,6.50
2024-01-07T08:47:40.739Z,10.20
2024-01-07T08:50:10.458Z,7.22
2024-01-07T08:52:37.714Z,8.98
2024-01-07T08:55:07.180Z,11.65
2024-01-07T08:57:34.670Z,10.80
2024-01-07T09:00:01.900Z,10.85
2024-01-07T09:02:29.041Z,7.07
2024-01-07T09:04:56.209Z,8.00
2024-01-07T09:07:23.346Z,7.07
2024-01-07T09:10:00.601Z,14.18
2024-01-07T09:12:29.936Z,8.82
2024-01-07T09:14:57.169Z,8.05
2024-01-07T09:17:24.472Z,9.70
2024-01-07T09:19:51.653Z,7.50
2024-01-07T09:22:19.049Z,9.68
2024-01-07T09:24:47.503Z,13.60
2024-01-07T09:27:15.525Z,10.38
2024-01-07T09:29:43.545Z,10.23
2024-01-07T09:32:10.666Z,7.07
2024-01-07T09:34:40.039Z,7.75
2024-01-07T09:37:11.335Z,8.10
2024-01-07T09:39:43.096Z,10.27
2024-01-07T09:42:17.074Z,13.82
2024-01-07T09:44:45.143Z,6.68
2024-01-07T09:47:16.259Z,8.32
2024-01-07T09:49:47.184Z,6.18
2024-01-07T09:52:14.918Z,5.60
2024-01-07T09:54:51.948Z,6.78
2024-01-07T09:57:35.252Z,9.40
2024-01-07T10:00:06.028Z,7.80
2024-01-07T10:02:33.781Z,6.67
2024-01-07T10:05:01.028Z,8.32
2024-01-07T10:07:29.250Z,8.98
2024-01-07T10:09:57.449Z,5.70
2024-01-07T10:12:25.597Z,7.00
2024-01-07T10:14:52.766Z,6.85
2024-01-07T10:17:20.162Z,6.60
2024-01-07T10:19:47.669Z,5.95
2024-01-07T10:22:17.506Z,9.60
2024-01-07T10:24:44.923Z,6.13
2024-01-07T10:27:14.897Z,6.00
2024-01-07T10:29:42.665Z,6.50
2024-01-07T10:32:10.103Z,5.93
2024-01-07T10:34:38.271Z,8.70
2024-01-07T10:37:07.146Z,8.85
2024-01-07T10:39:34.520Z,5.28
2024-01-07T10:42:04.260Z,7.35
2024-01-07T10:44:33.188Z,9.23
2024-01-07T10:47:01.123Z,5.78
2024-01-07T10:49:32.913Z,5.22
2024-01-07T10:52:06.959Z,5.57
2024-01-07T10:54:36.445Z,7.38
2024-01-07T10:57:33.803Z,4.53
2024-01-07T11:00:01.952Z,7.55
2024-01-07T11:02:29.492Z,5.50
2024-01-07T11:05:14.597Z,8.23
2024-01-07T11:07:51.504Z,4.20
2024-01-07T11:10:30.177Z,7.32
2024-01-07T11:13:02.220Z,5.45
2024-01-07T11:15:51.396Z,6.47
2024-01-07T11:18:32.904Z,9.68
2024-01-07T11:21:05.168Z,7.85
2024-01-07T11:23:41.380Z,5.32
2024-01-07T11:26:11.004Z,5.13
2024-01-07T11:28:49.499Z,4.85
2024-01-07T11:31:23.107Z,4.18
2024-01-07T11:33:51.891Z,4.95
2024-01-07T11:36:21.380Z,14.32
2024-01-07T11:38:54.196Z,5.55
2024-01-07T11:41:22.678Z,7.70
2024-01-07T11:44:05.018Z,4.78
2024-01-07T11:46:34.180Z,6.38
2024-01-07T11:49:02.230Z,5.90
2024-01-07T11:51:32.615Z,4.05
2024-01-07T11:54:01.851Z,9.57
2024-01-07T11:56:30.264Z,5.00
2024-01-07T11:58:57.990Z,5.53
2024-01-07T12:01:28.091Z,5.05
2024-01-07T12:03:55.868Z,4.45
2024-01-07T12:06:23.451Z,4.93
2024-01-07T12:08:50.940Z,4.65
2024-01-07T12:11:18.404Z,10.00
2024-01-07T12:13:46.028Z,9.32
2024-01-07T12:16:14.162Z,6.68
2024-01-07T12:18:41.799Z,7.05
2024-01-07T12:21:09.180Z,3.65
2024-01-07T12:23:42.581Z,5.72
2024-01-07T12:26:12.771Z,3.42
2024-01-07T12:28:40.603Z,6.72
2024-01-07T12:31:08.446Z,8.15
2024-01-07T12:33:38.584Z,12.27
2024-01-07T12:36:08.444Z,6.30
2024-01-07T12:38:39.290Z,5.00
2024-01-07T12:41:06.825Z,4.20
2024-01-07T12:43:34.790Z,5.70
2024-01-07T12:46:07.159Z,6.07
2024-01-07T12:48:35.057Z,11.18
2024-01-07T12:51:02.915Z,9.63
2024-01-07T12:53:30.521Z,4.97
2024-01-07T12:55:58.709Z,9.60
2024-01-07T12:58:26.033Z,5.65
2024-01-07T13:00:53.661Z,3.83
2024-01-07T13:03:21.338Z,8.60
2024-01-07T13:05:52.851Z,8.75
2024-01-07T13:08:21.217Z,5.75
2024-01-07T13:10:50.001Z,4.18
2024-01-07T13:13:17.299Z,5.93
2024-01-07T13:15:46.347Z,6.15
2024-01-07T13:18:14.453Z,4.63
2024-01-07T13:20:41.906Z,7.53
2024-01-07T13:23:09.192Z,4.15
2024-01-07T13:25:36.420Z,8.68
2024-01-07T13:28:04.085Z,4.43
2024-01-07T13:30:31.582Z,11.85
2024-01-07T13:33:00.655Z,8.68
2024-01-07T13:35:28.850Z,9.25
2024-01-07T13:37:56.074Z,4.50
2024-01-07T13:40:23.275Z,10.15
2024-01-07T13:42:52.497Z,6.82
2024-01-07T13:45:24.686Z,12.13
2024-01-07T13:47:52.358Z,5.68
2024-01-07T13:50:19.805Z,5.28
2024-01-07T13:52:46.961Z,10.02
2024-01-07T13:55:15.173Z,7.63
2024-01-07T13:57:43.369Z,4.03
2024-01-07T14:00:12.826Z,8.23
2024-01-07T14:02:42.047Z,5.53
2024-01-07T14:05:11.887Z,5.32
2024-01-07T14:07:40.111Z,8.00
2024-01-07T14:10:08.656Z,4.93
2024-01-07T14:12:36.372Z,11.07
2024-01-07T14:15:04.430Z,4.13
2024-01-07T14:17:31.921Z,5.15
2024-01-07T14:19:59.379Z,6.18
2024-01-07T14:22:26.805Z,7.15
2024-01-07T14:24:54.054Z,6.35
2024-01-07T14:27:21.392Z,7.43
2024-01-07T14:29:49.305Z,8.50
2024-01-07T14:32:16.595Z,7.55
2024-01-07T14:34:45.655Z,6.47
2024-01-07T14:37:13.271Z,5.03
2024-01-07T14:39:41.002Z,7.78
2024-01-07T14:42:08.429Z,6.32
2024-01-07T14:44:44.517Z,6.20
2024-01-07T14:49:44.942Z,7.35
2024-01-07T14:52:12.261Z,8.65
2024-01-07T14:54:40.900Z,14.45
2024-01-07T14:57:10.093Z,12.57
2024-01-07T14:59:37.541Z,5.75
2024-01-07T15:02:05.413Z,10.10
2024-01-07T15:04:36.296Z,10.32
2024-01-07T15:07:03.695Z,6.55
2024-01-07T15:09:31.096Z,10.32
2024-01-07T15:11:58.409Z,8.27
2024-01-07T15:14:25.565Z,10.73
2024-01-07T15:16:56.236Z,13.18
2024-01-07T15:19:24.376Z,8.43
2024-01-07T15:21:52.249Z,9.10
2024-01-07T15:24:19.586Z,8.63
2024-01-07T15:26:46.979Z,11.65
2024-01-07T15:29:15.528Z,11.00
2024-01-07T15:31:43.365Z,9.40
2024-01-07T15:34:10.855Z,10.13
2024-01-07T15:36:38.925Z,11.25
2024-01-07T15:39:06.385Z,14.15
2024-01-07T15:41:33.583Z,12.75
2024-01-07T15:44:00.818Z,12.30
2024-01-07T15:46:29.507Z,13.70
2024-01-07T15:48:56.942Z,12.27
2024-01-07T15:51:24.246Z,10.40
2024-01-07T15:53:51.601Z,6.65
2024-01-07T15:56:21.112Z,9.52
2024-01-07T15:58:48.768Z,8.65
2024-01-07T16:01:16.117Z,8.52
2024-01-07T16:03:44.386Z,9.63
2024-01-07T16:06:11.669Z,9.43
2024-01-07T16:08:38.901Z,9.60
2024-01-07T16:11:06.186Z,12.63
2024-01-07T16:13:33.337Z,17.00
2024-01-07T16:16:05.778Z,16.33
2024-01-07T16:18:33.387Z,10.95
2024-01-07T16:21:00.716Z,11.13
2024-01-07T16:23:28.945Z,15.63
2024-01-07T16:25:56.777Z,12.63
2024-01-07T16:28:24.446Z,12.55
2024-01-07T16:30:51.828Z,17.17
2024-01-07T16:33:19.224Z,11.05
2024-01-07T17:20:11.434Z,15.95
2024-01-07T17:22:38.809Z,14.73
2024-01-07T17:25:09.830Z,13.60
2024-01-07T17:27:37.063Z,22.35
2024-01-07T17:30:04.764Z,12.25
2024-01-07T17:32:32.094Z,18.48
2024-01-07T17:34:59.340Z,13.10
2024-01-07T17:37:27.512Z,16.70
2024-01-07T17:39:54.884Z,18.23
2024-01-07T17:42:23.179Z,15.93
2024-01-07T17:44:50.366Z,15.82
2024-01-07T17:47:17.849Z,11.57
2024-01-07T17:49:48.407Z,16.90
2024-01-07T17:52:15.626Z,16.52
2024-01-07T17:54:42.950Z,12.18
2024-01-07T17:57:10.207Z,12.60
2024-01-07T17:59:37.454Z,14.77
2024-01-07T18:02:08.336Z,12.73
2024-01-07T18:04:36.125Z,14.43
2024-01-07T18:07:03.299Z,13.32
2024-01-07T18:09:30.723Z,18.85
2024-01-07T18:11:58.041Z,18.60
2024-01-07T18:14:25.346Z,17.75
2024-01-07T18:16:52.886Z,13.57
2024-01-07T18:19:20.222Z,13.15
2024-01-07T18:21:48.626Z,14.32
2024-01-07T18:24:16.310Z,15.73
2024-01-07T18:26:44.095Z,20.48
2024-01-07T18:29:13.105Z,19.10
2024-01-07T18:31:43.715Z,13.60
2024-01-07T18:34:11.782Z,18.35
2024-01-07T18:36:39.182Z,12.38
2024-01-07T18:39:08.323Z,16.35
2024-01-07T18:41:36.955Z,11.25
2024-01-07T18:44:08.685Z,10.18
2024-01-07T18:49:05.214Z,10.13
2024-01-07T18:51:32.724Z,10.27
2024-01-07T18:53:59.928Z,11.38
2024-01-07T18:56:27.669Z,9.52
2024-01-07T18:58:56.838Z,13.25
2024-01-07T19:01:25.731Z,13.68
2024-01-07T19:03:53.152Z,13.10
2024-01-07T19:06:20.389Z,12.50
2024-01-07T19:08:48.984Z,11.75
2024-01-07T19:11:16.267Z,10.68
2024-01-07T19:13:44.379Z,8.48
2024-01-07T19:16:11.514Z,11.80
2024-01-07T19:18:38.839Z,12.05
2024-01-07T19:21:08.955Z,12.90
2024-01-07T19:26:08.622Z,6.68
2024-01-07T19:43:26.723Z,14.40
2024-01-07T19:45:53.922Z,14.60
2024-01-07T19:48:21.227Z,11.07
2024-01-07T19:50:48.524Z,12.02
2024-01-07T19:53:23.527Z,13.05
2024-01-07T19:55:57.257Z,8.00
2024-01-07T19:58:24.817Z,10.85
2024-01-07T20:00:52.332Z,7.85
2024-01-07T20:03:20.249Z,9.82
2024-01-07T20:05:47.590Z,12.02
2024-01-07T20:08:15.876Z,13.25
2024-01-07T20:10:43.132Z,9.60
2024-01-07T20:13:10.309Z,12.35
2024-01-07T20:23:04.902Z,11.68
2024-01-07T20:25:32.087Z,12.15
2024-01-07T20:27:59.344Z,11.27
2024-01-07T20:30:26.748Z,9.45
2024-01-07T20:32:53.919Z,11.02
2024-01-07T20:35:21.230Z,8.43
2024-01-07T20:37:48.413Z,15.95
2024-01-07T20:40:15.607Z,11.45
2024-01-07T20:42:44.533Z,11.93
2024-01-07T20:45:13.144Z,14.60
2024-01-07T20:47:40.334Z,9.45
2024-01-07T20:50:10.270Z,8.57
2024-01-07T20:52:37.578Z,9.32
2024-01-07T20:55:05.250Z,10.10
2024-01-07T20:57:32.455Z,10.75
2024-01-07T20:59:59.669Z,10.02
2024-01-07T21:02:28.601Z,9.05
2024-01-07T21:05:02.572Z,10.10
2024-01-07T21:07:32.352Z,10.23
2024-01-07T21:10:01.222Z,7.90
2024-01-07T21:12:28.362Z,12.23
2024-01-07T21:14:58.161Z,10.68
2024-01-07T21:19:52.523Z,12.82
2024-01-07T21:22:19.720Z,8.88
2024-01-07T21:24:47.021Z,9.55
2024-01-07T21:27:14.425Z,10.90
2024-01-07T21:29:41.984Z,10.60
2024-01-07T21:32:09.772Z,9.43
2024-01-07T21:34:39.489Z,9.32
2024-01-07T21:37:06.622Z,9.55
2024-01-07T21:39:33.765Z,7.47
2024-01-07T21:42:00.893Z,8.43
2024-01-07T21:44:28.312Z,9.65
2024-01-07T21:46:55.708Z,8.63
2024-01-07T21:49:23.151Z,6.25
2024-01-07T21:51:50.285Z,7.80
2024-01-07T21:54:17.399Z,9.85
2024-01-07T21:56:44.828Z,11.63
2024-01-07T21:59:12.105Z,7.38
2024-01-07T22:01:40.399Z,9.10
2024-01-07T22:04:07.635Z,7.60
2024-01-07T22:06:34.880Z,6.78
2024-01-07T22:09:02.169Z,9.75
2024-01-07T22:11:29.349Z,10.48
2024-01-07T22:13:56.650Z,7.28
2024-01-07T22:16:23.877Z,14.43
2024-01-07T22:18:51.096Z,7.32
2024-01-07T22:21:20.156Z,8.70
2024-01-07T22:23:48.457Z,7.93
2024-01-07T22:26:15.661Z,12.48
2024-01-07T22:28:46.065Z,8.00
2024-01-07T22:31:14.854Z,9.30
2024-01-07T22:33:43.053Z,9.05
2024-01-07T22:36:10.719Z,6.82
2024-01-07T22:38:38.114Z,10.90
2024-01-07T22:41:05.685Z,6.90
2024-01-07T22:43:33.308Z,8.50
2024-01-07T22:46:00.570Z,8.50
2024-01-07T22:48:33.097Z,8.85
2024-01-07T22:51:00.823Z,7.65
2024-01-07T22:53:28.059Z,7.78
2024-01-07T22:55:55.395Z,7.25
2024-01-07T22:58:22.671Z,7.70
2024-01-07T23:00:49.931Z,6.38
2024-01-07T23:03:17.227Z,7.15
2024-01-07T23:05:44.797Z,8.82
2024-01-07T23:08:12.484Z,8.07
2024-01-07T23:10:40.112Z,7.05
2024-01-07T23:13:07.342Z,8.05
2024-01-07T23:15:34.501Z,13.82
2024-01-07T23:18:01.689Z,9.73
2024-01-07T23:20:28.932Z,6.78
2024-01-07T23:22:56.139Z,6.65
2024-01-07T23:25:23.311Z,7.55
2024-01-07T23:27:50.544Z,13.15
2024-01-07T23:30:17.860Z,7.70
2024-01-07T23:32:45.163Z,9.68
2024-01-07T23:35:12.682Z,7.85
2024-01-07T23:37:39.939Z,7.75
2024-01-07T23:40:08.025Z,8.82
2024-01-07T23:42:35.437Z,8.13
2024-01-07T23:45:02.712Z,12.00
2024-01-07T23:47:30.020Z,9.25
2024-01-07T23:49:57.251Z,14.50
2024-01-07T23:52:24.479Z,8.95
2024-01-07T23:54:51.680Z,8.32
2024-01-07T23:57:18.910Z,10.38
2024-01-07T23:59:46.081Z,10.27
